sensor_id;sensor_type;location;lat;lon;timestamp;pressure;altitude;pressure_sealevel;temperature
37414;BMP280;23279;46.472;30.760;2022-12-20T00:01:08;81391.47;;;-146.33
37414;BMP280;23279;46.472;30.760;2022-12-20T00:03:34;81350.72;;;-146.33
37414;BMP280;23279;46.472;30.760;2022-12-20T00:05:59;81338.50;;;-146.33
37414;BMP280;23279;46.472;30.760;2022-12-20T00:08:24;81314.06;;;-146.33
37414;BMP280;23279;46.472;30.760;2022-12-20T00:10:49;81297.75;;;-146.33
37414;BMP280;23279;46.472;30.760;2022-12-20T00:13:15;81299.78;;;-146.33
37414;BMP280;23279;46.472;30.760;2022-12-20T00:15:40;81316.09;;;-146.33
37414;BMP280;23279;46.472;30.760;2022-12-20T00:18:05;81342.56;;;-146.33
37414;BMP280;23279;46.472;30.760;2022-12-20T00:20:30;81334.41;;;-146.33
37414;BMP280;23279;46.472;30.760;2022-12-20T00:22:56;81340.53;;;-146.33
37414;BMP280;23279;46.472;30.760;2022-12-20T00:25:21;81336.47;;;-146.33
37414;BMP280;23279;46.472;30.760;2022-12-20T00:27:46;81342.56;;;-146.33
37414;BMP280;23279;46.472;30.760;2022-12-20T00:30:12;81354.78;;;-146.33
37414;BMP280;23279;46.472;30.760;2022-12-20T00:32:37;81369.06;;;-146.33
37414;BMP280;23279;46.472;30.760;2022-12-20T00:35:03;81381.28;;;-146.33
37414;BMP280;23279;46.472;30.760;2022-12-20T00:37:28;81375.16;;;-146.33
37414;BMP280;23279;46.472;30.760;2022-12-20T00:39:53;81371.09;;;-146.33
37414;BMP280;23279;46.472;30.760;2022-12-20T00:42:19;81373.13;;;-146.33
37414;BMP280;23279;46.472;30.760;2022-12-20T00:44:44;81342.56;;;-146.33
37414;BMP280;23279;46.472;30.760;2022-12-20T00:47:09;81338.50;;;-146.33
37414;BMP280;23279;46.472;30.760;2022-12-20T00:49:35;81334.41;;;-146.33
37414;BMP280;23279;46.472;30.760;2022-12-20T00:52:00;81342.56;;;-146.33
37414;BMP280;23279;46.472;30.760;2022-12-20T00:54:25;81326.28;;;-146.33
37414;BMP280;23279;46.472;30.760;2022-12-20T00:56:50;81334.41;;;-146.33
37414;BMP280;23279;46.472;30.760;2022-12-20T00:59:16;81330.34;;;-146.33
37414;BMP280;23279;46.472;30.760;2022-12-20T01:01:41;81324.25;;;-146.33
37414;BMP280;23279;46.472;30.760;2022-12-20T01:04:06;81309.97;;;-146.33
37414;BMP280;23279;46.472;30.760;2022-12-20T01:06:32;81305.91;;;-146.33
37414;BMP280;23279;46.472;30.760;2022-12-20T01:08:57;81318.13;;;-146.33
37414;BMP280;23279;46.472;30.760;2022-12-20T01:11:24;81314.06;;;-146.33
37414;BMP280;23279;46.472;30.760;2022-12-20T01:13:50;81328.31;;;-146.33
37414;BMP280;23279;46.472;30.760;2022-12-20T01:16:18;81295.72;;;-146.33
37414;BMP280;23279;46.472;30.760;2022-12-20T01:18:43;81309.97;;;-146.33
37414;BMP280;23279;46.472;30.760;2022-12-20T01:21:09;81364.97;;;-146.33
37414;BMP280;23279;46.472;30.760;2022-12-20T01:23:35;81385.34;;;-146.33
37414;BMP280;23279;46.472;30.760;2022-12-20T01:26:01;81420.00;;;-146.33
37414;BMP280;23279;46.472;30.760;2022-12-20T01:28:28;81444.44;;;-146.33
37414;BMP280;23279;46.472;30.760;2022-12-20T01:30:54;81428.13;;;-146.33
37414;BMP280;23279;46.472;30.760;2022-12-20T01:33:19;81448.50;;;-146.33
37414;BMP280;23279;46.472;30.760;2022-12-20T01:35:54;81432.22;;;-146.33
37414;BMP280;23279;46.472;30.760;2022-12-20T01:38:20;81452.59;;;-146.33
37414;BMP280;23279;46.472;30.760;2022-12-20T01:40:45;81440.38;;;-146.33
37414;BMP280;23279;46.472;30.760;2022-12-20T01:43:11;81391.47;;;-146.33
37414;BMP280;23279;46.472;30.760;2022-12-20T01:45:37;81391.47;;;-146.33
37414;BMP280;23279;46.472;30.760;2022-12-20T01:48:02;81430.19;;;-146.33
37414;BMP280;23279;46.472;30.760;2022-12-20T01:50:27;81420.00;;;-146.33
37414;BMP280;23279;46.472;30.760;2022-12-20T01:52:53;81454.63;;;-146.33
37414;BMP280;23279;46.472;30.760;2022-12-20T01:55:22;81452.59;;;-146.33
37414;BMP280;23279;46.472;30.760;2022-12-20T01:57:56;81448.50;;;-146.33
37414;BMP280;23279;46.472;30.760;2022-12-20T02:00:23;81460.72;;;-146.33
37414;BMP280;23279;46.472;30.760;2022-12-20T02:02:49;81444.44;;;-146.33
37414;BMP280;23279;46.472;30.760;2022-12-20T02:05:15;81446.47;;;-146.33
37414;BMP280;23279;46.472;30.760;2022-12-20T02:07:41;81448.50;;;-146.33
37414;BMP280;23279;46.472;30.760;2022-12-20T02:10:08;81413.88;;;-146.33
37414;BMP280;23279;46.472;30.760;2022-12-20T02:12:39;81428.13;;;-146.33
37414;BMP280;23279;46.472;30.760;2022-12-20T02:15:48;81420.00;;;-146.33
37414;BMP280;23279;46.472;30.760;2022-12-20T02:30:43;81367.03;;;-146.33
37414;BMP280;23279;46.472;30.760;2022-12-20T02:33:11;81338.50;;;-146.33
37414;BMP280;23279;46.472;30.760;2022-12-20T02:35:37;81309.97;;;-146.33
37414;BMP280;23279;46.472;30.760;2022-12-20T02:38:22;81305.91;;;-146.33
37414;BMP280;23279;46.472;30.760;2022-12-20T02:40:48;81301.81;;;-146.33
37414;BMP280;23279;46.472;30.760;2022-12-20T02:43:16;81273.31;;;-146.33
37414;BMP280;23279;46.472;30.760;2022-12-20T02:46:00;81273.31;;;-146.33
37414;BMP280;23279;46.472;30.760;2022-12-20T02:48:26;81232.56;;;-146.33
37414;BMP280;23279;46.472;30.760;2022-12-20T02:50:53;81230.53;;;-146.33
37414;BMP280;23279;46.472;30.760;2022-12-20T02:53:19;81261.09;;;-146.33
37414;BMP280;23279;46.472;30.760;2022-12-20T02:58:22;81240.72;;;-146.33
37414;BMP280;23279;46.472;30.760;2022-12-20T03:00:48;81228.47;;;-146.33
37414;BMP280;23279;46.472;30.760;2022-12-20T03:03:14;81199.97;;;-146.33
37414;BMP280;23279;46.472;30.760;2022-12-20T03:05:50;81159.22;;;-146.33
37414;BMP280;23279;46.472;30.760;2022-12-20T03:08:16;81159.22;;;-146.33
37414;BMP280;23279;46.472;30.760;2022-12-20T03:10:42;81136.81;;;-146.33
37414;BMP280;23279;46.472;30.760;2022-12-20T03:13:08;81167.38;;;-146.33
37414;BMP280;23279;46.472;30.760;2022-12-20T03:15:33;81175.53;;;-146.33
37414;BMP280;23279;46.472;30.760;2022-12-20T03:17:59;81169.41;;;-146.33
37414;BMP280;23279;46.472;30.760;2022-12-20T03:20:24;81183.66;;;-146.33
37414;BMP280;23279;46.472;30.760;2022-12-20T03:22:50;81191.81;;;-146.33
37414;BMP280;23279;46.472;30.760;2022-12-20T03:25:15;81175.53;;;-146.33
37414;BMP280;23279;46.472;30.760;2022-12-20T03:27:41;81173.47;;;-146.33
37414;BMP280;23279;46.472;30.760;2022-12-20T03:30:06;81126.63;;;-146.33
37414;BMP280;23279;46.472;30.760;2022-12-20T03:32:32;81130.69;;;-146.33
37414;BMP280;23279;46.472;30.760;2022-12-20T03:34:57;81083.84;;;-146.33
37414;BMP280;23279;46.472;30.760;2022-12-20T03:37:22;81061.44;;;-146.33
37414;BMP280;23279;46.472;30.760;2022-12-20T03:39:48;81055.34;;;-146.33
37414;BMP280;23279;46.472;30.760;2022-12-20T03:42:13;81049.22;;;-146.33
37414;BMP280;23279;46.472;30.760;2022-12-20T03:44:38;81071.63;;;-146.33
37414;BMP280;23279;46.472;30.760;2022-12-20T03:47:04;81073.66;;;-146.33
37414;BMP280;23279;46.472;30.760;2022-12-20T03:49:29;81073.66;;;-146.33
37414;BMP280;23279;46.472;30.760;2022-12-20T03:51:54;81114.41;;;-146.33
37414;BMP280;23279;46.472;30.760;2022-12-20T03:54:19;81063.47;;;-146.33
37414;BMP280;23279;46.472;30.760;2022-12-20T03:56:45;81053.28;;;-146.33
37414;BMP280;23279;46.472;30.760;2022-12-20T03:59:10;81000.31;;;-146.33
37414;BMP280;23279;46.472;30.760;2022-12-20T04:01:35;81020.69;;;-146.33
37414;BMP280;23279;46.472;30.760;2022-12-20T04:04:02;81024.78;;;-146.33
37414;BMP280;23279;46.472;30.760;2022-12-20T04:06:28;81041.06;;;-146.33
37414;BMP280;23279;46.472;30.760;2022-12-20T04:08:53;81071.63;;;-146.33
37414;BMP280;23279;46.472;30.760;2022-12-20T04:11:19;81057.38;;;-146.33
37414;BMP280;23279;46.472;30.760;2022-12-20T04:13:53;81081.81;;;-146.33
37414;BMP280;23279;46.472;30.760;2022-12-20T04:16:20;81075.69;;;-146.33
37414;BMP280;23279;46.472;30.760;2022-12-20T04:18:46;81071.63;;;-146.33
37414;BMP280;23279;46.472;30.760;2022-12-20T04:21:11;81077.75;;;-146.33
37414;BMP280;23279;46.472;30.760;2022-12-20T04:23:38;81112.38;;;-146.33
37414;BMP280;23279;46.472;30.760;2022-12-20T04:26:04;81085.88;;;-146.33
37414;BMP280;23279;46.472;30.760;2022-12-20T04:28:29;81092.00;;;-146.33
37414;BMP280;23279;46.472;30.760;2022-12-20T04:30:58;81083.84;;;-146.33
37414;BMP280;23279;46.472;30.760;2022-12-20T04:33:23;81053.28;;;-146.33
37414;BMP280;23279;46.472;30.760;2022-12-20T04:35:49;81047.19;;;-146.33
37414;BMP280;23279;46.472;30.760;2022-12-20T04:38:16;81087.94;;;-146.33
37414;BMP280;23279;46.472;30.760;2022-12-20T04:40:41;81089.97;;;-146.33
37414;BMP280;23279;46.472;30.760;2022-12-20T04:43:06;81030.88;;;-146.33
37414;BMP280;23279;46.472;30.760;2022-12-20T04:45:32;81037.00;;;-146.33
37414;BMP280;23279;46.472;30.760;2022-12-20T04:47:57;81034.97;;;-146.33
37414;BMP280;23279;46.472;30.760;2022-12-20T04:50:23;81039.03;;;-146.33
37414;BMP280;23279;46.472;30.760;2022-12-20T04:52:48;81045.16;;;-146.33
37414;BMP280;23279;46.472;30.760;2022-12-20T04:55:35;81045.16;;;-146.33
37414;BMP280;23279;46.472;30.760;2022-12-20T04:58:01;81032.94;;;-146.33
37414;BMP280;23279;46.472;30.760;2022-12-20T05:00:26;81120.50;;;-146.33
37414;BMP280;23279;46.472;30.760;2022-12-20T05:02:51;81081.81;;;-146.33
37414;BMP280;23279;46.472;30.760;2022-12-20T05:05:16;81171.44;;;-146.33
37414;BMP280;23279;46.472;30.760;2022-12-20T05:07:42;81102.19;;;-146.33
37414;BMP280;23279;46.472;30.760;2022-12-20T05:10:07;81098.09;;;-146.33
37414;BMP280;23279;46.472;30.760;2022-12-20T05:12:33;81065.50;;;-146.33
37414;BMP280;23279;46.472;30.760;2022-12-20T05:14:58;81016.63;;;-146.33
37414;BMP280;23279;46.472;30.760;2022-12-20T05:17:23;81002.38;;;-146.33
37414;BMP280;23279;46.472;30.760;2022-12-20T05:19:48;81012.56;;;-146.33
37414;BMP280;23279;46.472;30.760;2022-12-20T05:22:14;80963.66;;;-146.33
37414;BMP280;23279;46.472;30.760;2022-12-20T05:24:58;80918.84;;;-146.33
37414;BMP280;23279;46.472;30.760;2022-12-20T05:27:42;80935.16;;;-146.33
37414;BMP280;23279;46.472;30.760;2022-12-20T05:30:07;80929.03;;;-146.33
37414;BMP280;23279;46.472;30.760;2022-12-20T05:32:32;80955.50;;;-146.33
37414;BMP280;23279;46.472;30.760;2022-12-20T05:34:57;80984.03;;;-146.33
37414;BMP280;23279;46.472;30.760;2022-12-20T05:37:23;80988.09;;;-146.33
37414;BMP280;23279;46.472;30.760;2022-12-20T05:39:48;80992.19;;;-146.33
37414;BMP280;23279;46.472;30.760;2022-12-20T05:42:14;80994.22;;;-146.33
37414;BMP280;23279;46.472;30.760;2022-12-20T05:44:39;80955.50;;;-146.33
37414;BMP280;23279;46.472;30.760;2022-12-20T05:47:04;80982.00;;;-146.33
37414;BMP280;23279;46.472;30.760;2022-12-20T05:49:30;80935.16;;;-146.33
37414;BMP280;23279;46.472;30.760;2022-12-20T05:51:55;80922.91;;;-146.33
37414;BMP280;23279;46.472;30.760;2022-12-20T05:54:20;80965.69;;;-146.33
37414;BMP280;23279;46.472;30.760;2022-12-20T05:56:46;80975.88;;;-146.33
37414;BMP280;23279;46.472;30.760;2022-12-20T05:59:11;81016.63;;;-146.33
37414;BMP280;23279;46.472;30.760;2022-12-20T06:01:36;81002.38;;;-146.33
37414;BMP280;23279;46.472;30.760;2022-12-20T06:04:01;81049.22;;;-146.33
37414;BMP280;23279;46.472;30.760;2022-12-20T06:06:27;81032.94;;;-146.33
37414;BMP280;23279;46.472;30.760;2022-12-20T06:08:52;81008.47;;;-146.33
37414;BMP280;23279;46.472;30.760;2022-12-20T06:11:17;81016.63;;;-146.33
37414;BMP280;23279;46.472;30.760;2022-12-20T06:13:42;80971.81;;;-146.33
37414;BMP280;23279;46.472;30.760;2022-12-20T06:16:08;80953.47;;;-146.33
37414;BMP280;23279;46.472;30.760;2022-12-20T06:18:33;80963.66;;;-146.33
37414;BMP280;23279;46.472;30.760;2022-12-20T06:20:58;80941.25;;;-146.33
37414;BMP280;23279;46.472;30.760;2022-12-20T06:23:24;80904.59;;;-146.33
37414;BMP280;23279;46.472;30.760;2022-12-20T06:25:49;80863.84;;;-146.33
37414;BMP280;23279;46.472;30.760;2022-12-20T06:28:14;80814.97;;;-146.33
37414;BMP280;23279;46.472;30.760;2022-12-20T06:30:50;80808.84;;;-146.33
37414;BMP280;23279;46.472;30.760;2022-12-20T06:33:15;80876.06;;;-146.33
37414;BMP280;23279;46.472;30.760;2022-12-20T06:35:41;80857.75;;;-146.33
37414;BMP280;23279;46.472;30.760;2022-12-20T06:38:06;80869.97;;;-146.33
37414;BMP280;23279;46.472;30.760;2022-12-20T06:40:31;80898.47;;;-146.33
37414;BMP280;23279;46.472;30.760;2022-12-20T06:42:56;80876.06;;;-146.33
37414;BMP280;23279;46.472;30.760;2022-12-20T06:45:22;80890.34;;;-146.33
37414;BMP280;23279;46.472;30.760;2022-12-20T06:47:47;80927.00;;;-146.33
37414;BMP280;23279;46.472;30.760;2022-12-20T06:50:12;81061.44;;;-146.33
37414;BMP280;23279;46.472;30.760;2022-12-20T06:52:37;81114.41;;;-146.33
37414;BMP280;23279;46.472;30.760;2022-12-20T06:55:03;81181.63;;;-146.33
37414;BMP280;23279;46.472;30.760;2022-12-20T06:57:28;81214.22;;;-146.33
37414;BMP280;23279;46.472;30.760;2022-12-20T06:59:53;81195.91;;;-146.33
37414;BMP280;23279;46.472;30.760;2022-12-20T07:02:19;81208.13;;;-146.33
37414;BMP280;23279;46.472;30.760;2022-12-20T07:04:44;81257.00;;;-146.33
37414;BMP280;23279;46.472;30.760;2022-12-20T07:07:10;81301.81;;;-146.33
37414;BMP280;23279;46.472;30.760;2022-12-20T07:09:36;81293.69;;;-146.33
37414;BMP280;23279;46.472;30.760;2022-12-20T07:12:02;81322.19;;;-146.33
37414;BMP280;23279;46.472;30.760;2022-12-20T07:14:30;81281.44;;;-146.33
37414;BMP280;23279;46.472;30.760;2022-12-20T07:16:55;81265.16;;;-146.33
37414;BMP280;23279;46.472;30.760;2022-12-20T07:19:20;81236.63;;;-146.33
37414;BMP280;23279;46.472;30.760;2022-12-20T07:21:46;81232.56;;;-146.33
37414;BMP280;23279;46.472;30.760;2022-12-20T07:24:11;81183.66;;;-146.33
37414;BMP280;23279;46.472;30.760;2022-12-20T07:26:36;81169.41;;;-146.33
37414;BMP280;23279;46.472;30.760;2022-12-20T07:29:02;81244.78;;;-146.33
37414;BMP280;23279;46.472;30.760;2022-12-20T07:31:27;81265.16;;;-146.33
37414;BMP280;23279;46.472;30.760;2022-12-20T07:33:52;81305.91;;;-146.33
37414;BMP280;23279;46.472;30.760;2022-12-20T07:36:18;81305.91;;;-146.33
37414;BMP280;23279;46.472;30.760;2022-12-20T07:38:43;81301.81;;;-146.33
37414;BMP280;23279;46.472;30.760;2022-12-20T07:41:12;81273.31;;;-146.33
37414;BMP280;23279;46.472;30.760;2022-12-20T07:43:38;81320.16;;;-146.33
37414;BMP280;23279;46.472;30.760;2022-12-20T07:46:04;81285.53;;;-146.33
37414;BMP280;23279;46.472;30.760;2022-12-20T07:48:29;81283.50;;;-146.33
37414;BMP280;23279;46.472;30.760;2022-12-20T07:50:56;81281.44;;;-146.33
37414;BMP280;23279;46.472;30.760;2022-12-20T07:53:23;81228.47;;;-146.33
37414;BMP280;23279;46.472;30.760;2022-12-20T07:55:49;81210.16;;;-146.33
37414;BMP280;23279;46.472;30.760;2022-12-20T07:58:14;81254.97;;;-146.33
37414;BMP280;23279;46.472;30.760;2022-12-20T08:00:41;81181.63;;;-146.33
37414;BMP280;23279;46.472;30.760;2022-12-20T08:03:26;81202.00;;;-146.33
37414;BMP280;23279;46.472;30.760;2022-12-20T08:05:54;81208.13;;;-146.33
37414;BMP280;23279;46.472;30.760;2022-12-20T08:08:20;81242.75;;;-146.33
37414;BMP280;23279;46.472;30.760;2022-12-20T08:10:46;81248.84;;;-146.33
37414;BMP280;23279;46.472;30.760;2022-12-20T08:13:12;81179.59;;;-146.33
37414;BMP280;23279;46.472;30.760;2022-12-20T08:15:37;81120.50;;;-146.33
37414;BMP280;23279;46.472;30.760;2022-12-20T08:18:02;81130.69;;;-146.33
37414;BMP280;23279;46.472;30.760;2022-12-20T08:20:30;81173.47;;;-146.33
37414;BMP280;23279;46.472;30.760;2022-12-20T08:22:55;81199.97;;;-146.33
37414;BMP280;23279;46.472;30.760;2022-12-20T08:25:21;81187.75;;;-146.33
37414;BMP280;23279;46.472;30.760;2022-12-20T08:27:47;81189.78;;;-146.33
37414;BMP280;23279;46.472;30.760;2022-12-20T08:30:12;81218.31;;;-146.33
37414;BMP280;23279;46.472;30.760;2022-12-20T08:32:38;81216.25;;;-146.33
37414;BMP280;23279;46.472;30.760;2022-12-20T08:35:03;81204.03;;;-146.33
37414;BMP280;23279;46.472;30.760;2022-12-20T08:37:29;81212.19;;;-146.33
37414;BMP280;23279;46.472;30.760;2022-12-20T08:39:54;81204.03;;;-146.33
37414;BMP280;23279;46.472;30.760;2022-12-20T08:42:20;81181.63;;;-146.33
37414;BMP280;23279;46.472;30.760;2022-12-20T08:44:45;81197.94;;;-146.33
37414;BMP280;23279;46.472;30.760;2022-12-20T08:47:10;81197.94;;;-146.33
37414;BMP280;23279;46.472;30.760;2022-12-20T08:49:35;81187.75;;;-146.33
37414;BMP280;23279;46.472;30.760;2022-12-20T08:52:01;81183.66;;;-146.33
37414;BMP280;23279;46.472;30.760;2022-12-20T08:54:26;81226.44;;;-146.33
37414;BMP280;23279;46.472;30.760;2022-12-20T08:56:51;81240.72;;;-146.33
37414;BMP280;23279;46.472;30.760;2022-12-20T08:59:17;81230.53;;;-146.33
37414;BMP280;23279;46.472;30.760;2022-12-20T09:01:42;81226.44;;;-146.33
37414;BMP280;23279;46.472;30.760;2022-12-20T09:04:08;81206.06;;;-146.33
37414;BMP280;23279;46.472;30.760;2022-12-20T09:06:34;81212.19;;;-146.33
37414;BMP280;23279;46.472;30.760;2022-12-20T09:08:59;81195.91;;;-146.33
37414;BMP280;23279;46.472;30.760;2022-12-20T09:11:25;81214.22;;;-146.33
37414;BMP280;23279;46.472;30.760;2022-12-20T09:13:51;81191.81;;;-146.33
37414;BMP280;23279;46.472;30.760;2022-12-20T09:16:18;81181.63;;;-146.33
37414;BMP280;23279;46.472;30.760;2022-12-20T09:18:47;81187.75;;;-146.33
37414;BMP280;23279;46.472;30.760;2022-12-20T09:21:12;81212.19;;;-146.33
37414;BMP280;23279;46.472;30.760;2022-12-20T09:23:37;81199.97;;;-146.33
37414;BMP280;23279;46.472;30.760;2022-12-20T09:26:03;81216.25;;;-146.33
37414;BMP280;23279;46.472;30.760;2022-12-20T09:28:29;81181.63;;;-146.33
37414;BMP280;23279;46.472;30.760;2022-12-20T09:31:02;81181.63;;;-146.33
37414;BMP280;23279;46.472;30.760;2022-12-20T09:33:28;81173.47;;;-146.33
37414;BMP280;23279;46.472;30.760;2022-12-20T09:35:54;81134.78;;;-146.33
37414;BMP280;23279;46.472;30.760;2022-12-20T09:38:20;81147.00;;;-146.33
37414;BMP280;23279;46.472;30.760;2022-12-20T09:40:48;81179.59;;;-146.33
37414;BMP280;23279;46.472;30.760;2022-12-20T09:43:15;81163.28;;;-146.33
37414;BMP280;23279;46.472;30.760;2022-12-20T09:45:41;81153.13;;;-146.33
37414;BMP280;23279;46.472;30.760;2022-12-20T09:48:12;81144.97;;;-146.33
37414;BMP280;23279;46.472;30.760;2022-12-20T09:55:48;81083.84;;;-146.33
37414;BMP280;23279;46.472;30.760;2022-12-20T10:00:52;81089.97;;;-146.33
37414;BMP280;23279;46.472;30.760;2022-12-20T10:03:35;81081.81;;;-146.33
37414;BMP280;23279;46.472;30.760;2022-12-20T10:06:05;81077.75;;;-146.33
37414;BMP280;23279;46.472;30.760;2022-12-20T10:08:36;81102.19;;;-146.33
37414;BMP280;23279;46.472;30.760;2022-12-20T10:21:25;81028.84;;;-146.33
37414;BMP280;23279;46.472;30.760;2022-12-20T10:26:22;81045.16;;;-146.33
37414;BMP280;23279;46.472;30.760;2022-12-20T10:28:47;81077.75;;;-146.33
37414;BMP280;23279;46.472;30.760;2022-12-20T10:31:13;81094.03;;;-146.33
37414;BMP280;23279;46.472;30.760;2022-12-20T10:33:40;81061.44;;;-146.33
37414;BMP280;23279;46.472;30.760;2022-12-20T10:36:16;81075.69;;;-146.33
37414;BMP280;23279;46.472;30.760;2022-12-20T10:38:43;81061.44;;;-146.33
37414;BMP280;23279;46.472;30.760;2022-12-20T10:41:10;81089.97;;;-146.33
37414;BMP280;23279;46.472;30.760;2022-12-20T10:43:40;81092.00;;;-146.33
37414;BMP280;23279;46.472;30.760;2022-12-20T10:46:07;81087.94;;;-146.33
37414;BMP280;23279;46.472;30.760;2022-12-20T10:48:37;81075.69;;;-146.33
37414;BMP280;23279;46.472;30.760;2022-12-20T10:51:23;81059.41;;;-146.33
37414;BMP280;23279;46.472;30.760;2022-12-20T10:53:49;81061.44;;;-146.33
37414;BMP280;23279;46.472;30.760;2022-12-20T10:56:22;81053.28;;;-146.33
37414;BMP280;23279;46.472;30.760;2022-12-20T10:59:31;81065.50;;;-146.33
37414;BMP280;23279;46.472;30.760;2022-12-20T11:01:36;81037.00;;;-146.33
37414;BMP280;23279;46.472;30.760;2022-12-20T11:04:27;81016.63;;;-146.33
37414;BMP280;23279;46.472;30.760;2022-12-20T11:06:53;81041.06;;;-146.33
37414;BMP280;23279;46.472;30.760;2022-12-20T11:09:29;81043.09;;;-146.33
37414;BMP280;23279;46.472;30.760;2022-12-20T11:14:23;81012.56;;;-146.33
37414;BMP280;23279;46.472;30.760;2022-12-20T11:16:49;81024.78;;;-146.33
37414;BMP280;23279;46.472;30.760;2022-12-20T11:32:55;80927.00;;;-146.33
37414;BMP280;23279;46.472;30.760;2022-12-20T11:40:54;80933.09;;;-146.33
37414;BMP280;23279;46.472;30.760;2022-12-20T11:51:04;80867.94;;;-146.33
37414;BMP280;23279;46.472;30.760;2022-12-20T11:56:25;80849.59;;;-146.33
37414;BMP280;23279;46.472;30.760;2022-12-20T11:58:58;80857.75;;;-146.33
37414;BMP280;23279;46.472;30.760;2022-12-20T12:01:28;80861.81;;;-146.33
37414;BMP280;23279;46.472;30.760;2022-12-20T12:03:58;80861.81;;;-146.33
37414;BMP280;23279;46.472;30.760;2022-12-20T12:06:26;80841.44;;;-146.33
37414;BMP280;23279;46.472;30.760;2022-12-20T12:11:30;80786.44;;;-146.33
37414;BMP280;23279;46.472;30.760;2022-12-20T12:13:56;80780.34;;;-146.33
37414;BMP280;23279;46.472;30.760;2022-12-20T12:16:24;80755.91;;;-146.33
37414;BMP280;23279;46.472;30.760;2022-12-20T12:18:51;80739.59;;;-146.33
37414;BMP280;23279;46.472;30.760;2022-12-20T12:28:45;80749.78;;;-146.33
37414;BMP280;23279;46.472;30.760;2022-12-20T12:31:13;80749.78;;;-146.33
37414;BMP280;23279;46.472;30.760;2022-12-20T12:33:41;80717.19;;;-146.33
37414;BMP280;23279;46.472;30.760;2022-12-20T12:46:47;80670.34;;;-146.33
37414;BMP280;23279;46.472;30.760;2022-12-20T12:49:17;80631.66;;;-146.33
37414;BMP280;23279;46.472;30.760;2022-12-20T12:51:48;80633.69;;;-146.33
37414;BMP280;23279;46.472;30.760;2022-12-20T12:54:21;80584.81;;;-146.33
37414;BMP280;23279;46.472;30.760;2022-12-20T12:56:47;80601.09;;;-146.33
37414;BMP280;23279;46.472;30.760;2022-12-20T13:04:22;80654.06;;;-146.33
37414;BMP280;23279;46.472;30.760;2022-12-20T13:09:20;80670.34;;;-146.33
37414;BMP280;23279;46.472;30.760;2022-12-20T13:11:46;80680.53;;;-146.33
37414;BMP280;23279;46.472;30.760;2022-12-20T13:16:50;80694.78;;;-146.33
37414;BMP280;23279;46.472;30.760;2022-12-20T13:21:52;80719.22;;;-146.33
37414;BMP280;23279;46.472;30.760;2022-12-20T13:24:36;80766.09;;;-146.33
37414;BMP280;23279;46.472;30.760;2022-12-20T13:27:11;80749.78;;;-146.33
37414;BMP280;23279;46.472;30.760;2022-12-20T13:29:48;80737.56;;;-146.33
37414;BMP280;23279;46.472;30.760;2022-12-20T13:35:26;80739.59;;;-146.33
37414;BMP280;23279;46.472;30.760;2022-12-20T13:40:56;80747.75;;;-146.33
37414;BMP280;23279;46.472;30.760;2022-12-20T13:48:15;80694.78;;;-146.33
37414;BMP280;23279;46.472;30.760;2022-12-20T13:50:46;80641.84;;;-146.33
37414;BMP280;23279;46.472;30.760;2022-12-20T13:53:16;80654.06;;;-146.33
37414;BMP280;23279;46.472;30.760;2022-12-20T13:55:42;80656.09;;;-146.33
37414;BMP280;23279;46.472;30.760;2022-12-20T13:58:27;80633.69;;;-146.33
37414;BMP280;23279;46.472;30.760;2022-12-20T14:01:02;80595.00;;;-146.33
37414;BMP280;23279;46.472;30.760;2022-12-20T14:03:29;80592.94;;;-146.33
37414;BMP280;23279;46.472;30.760;2022-12-20T14:05:56;80580.72;;;-146.33
37414;BMP280;23279;46.472;30.760;2022-12-20T14:08:23;80582.78;;;-146.33
37414;BMP280;23279;46.472;30.760;2022-12-20T14:10:50;80537.97;;;-146.33
37414;BMP280;23279;46.472;30.760;2022-12-20T14:13:25;80544.06;;;-146.33
37414;BMP280;23279;46.472;30.760;2022-12-20T14:15:51;80499.25;;;-146.33
37414;BMP280;23279;46.472;30.760;2022-12-20T14:18:20;80487.03;;;-146.33
37414;BMP280;23279;46.472;30.760;2022-12-20T14:20:47;80466.69;;;-146.33
37414;BMP280;23279;46.472;30.760;2022-12-20T14:23:15;80448.34;;;-146.33
37414;BMP280;23279;46.472;30.760;2022-12-20T14:25:59;80442.25;;;-146.33
37414;BMP280;23279;46.472;30.760;2022-12-20T14:28:34;80403.53;;;-146.33
37414;BMP280;23279;46.472;30.760;2022-12-20T14:31:01;80354.66;;;-146.33
37414;BMP280;23279;46.472;30.760;2022-12-20T14:35:55;80330.22;;;-146.33
37414;BMP280;23279;46.472;30.760;2022-12-20T14:38:27;80340.41;;;-146.33
37414;BMP280;23279;46.472;30.760;2022-12-20T14:40:54;80307.81;;;-146.33
37414;BMP280;23279;46.472;30.760;2022-12-20T14:43:24;80301.72;;;-146.33
37414;BMP280;23279;46.472;30.760;2022-12-20T14:46:04;80297.63;;;-146.33
37414;BMP280;23279;46.472;30.760;2022-12-20T14:48:30;80279.31;;;-146.33
37414;BMP280;23279;46.472;30.760;2022-12-20T14:50:55;80246.72;;;-146.33
37414;BMP280;23279;46.472;30.760;2022-12-20T14:53:21;80234.50;;;-146.33
37414;BMP280;23279;46.472;30.760;2022-12-20T14:55:49;80216.19;;;-146.33
37414;BMP280;23279;46.472;30.760;2022-12-20T14:58:47;80218.22;;;-146.33
37414;BMP280;23279;46.472;30.760;2022-12-20T15:01:19;80222.28;;;-146.33
37414;BMP280;23279;46.472;30.760;2022-12-20T15:03:51;80220.25;;;-146.33
37414;BMP280;23279;46.472;30.760;2022-12-20T15:09:01;80234.50;;;-146.33
37414;BMP280;23279;46.472;30.760;2022-12-20T15:11:26;80222.28;;;-146.33
37414;BMP280;23279;46.472;30.760;2022-12-20T15:13:52;80248.75;;;-146.33
37414;BMP280;23279;46.472;30.760;2022-12-20T15:16:19;80242.66;;;-146.33
37414;BMP280;23279;46.472;30.760;2022-12-20T15:18:45;80256.91;;;-146.33
37414;BMP280;23279;46.472;30.760;2022-12-20T15:21:12;80246.72;;;-146.33
37414;BMP280;23279;46.472;30.760;2022-12-20T15:23:40;80254.88;;;-146.33
37414;BMP280;23279;46.472;30.760;2022-12-20T15:26:07;80303.75;;;-146.33
37414;BMP280;23279;46.472;30.760;2022-12-20T15:28:33;80297.63;;;-146.33
37414;BMP280;23279;46.472;30.760;2022-12-20T15:30:58;80324.13;;;-146.33